Time;durP1;ratioP1;P1;durP2;ratioP2;P2;SDS_P1;SDS_P2;PMS_P1;PMS_P2;Temp;Humidity;BMP_temperature;BMP_pressure;BME280_temperature;BME280_humidity;BME280_pressure;Samples;Min_cycle;Max_cycle;Signal;HPM_P1;HPM_P2
2022/09/13 00:01:29;;;;;;;2.78;1.35;;;23.30;71.30;;;;;;5115511;28;20490;-70
2022/09/13 00:03:55;;;;;;;1.50;1.00;;;23.30;71.30;;;;;;5115265;28;20085;-70
2022/09/13 00:06:21;;;;;;;3.28;1.30;;;23.30;71.30;;;;;;5115377;28;20065;-70
2022/09/13 00:08:46;;;;;;;7.35;1.40;;;23.30;71.30;;;;;;5115439;28;20031;-70
2022/09/13 00:11:22;;;;;;;3.22;1.55;;;23.30;71.30;;;;;;5115419;28;20459;-70
2022/09/13 00:13:48;;;;;;;3.47;1.50;;;23.30;71.30;;;;;;5115225;28;20016;-70
2022/09/13 00:16:15;;;;;;;2.47;1.38;;;23.30;71.30;;;;;;5097059;28;20098;-70
2022/09/13 00:18:41;;;;;;;4.10;1.35;;;23.30;71.30;;;;;;5113880;28;20063;-70
2022/09/13 00:21:17;;;;;;;7.72;1.27;;;23.30;71.40;;;;;;5113964;28;20055;-70
2022/09/13 00:23:44;;;;;;;3.03;1.42;;;23.30;71.50;;;;;;5114040;28;20019;-70
2022/09/13 00:26:11;;;;;;;2.55;1.00;;;23.30;71.40;;;;;;5115064;28;20102;-70
2022/09/13 00:28:37;;;;;;;2.25;1.20;;;23.30;71.40;;;;;;5115209;28;20413;-70
2022/09/13 00:31:04;;;;;;;2.10;1.30;;;23.30;71.40;;;;;;5113669;28;20107;-71
2022/09/13 00:33:29;;;;;;;2.45;1.30;;;23.30;71.50;;;;;;5096931;28;20027;-71
2022/09/13 00:35:55;;;;;;;3.20;1.55;;;23.30;71.40;;;;;;5113623;28;20024;-71
2022/09/13 00:38:21;;;;;;;2.22;1.17;;;23.30;71.40;;;;;;5096580;28;20027;-71
2022/09/13 00:40:47;;;;;;;3.08;1.48;;;23.30;71.40;;;;;;5114826;28;20032;-71
2022/09/13 00:43:18;;;;;;;2.78;1.30;;;23.30;71.50;;;;;;5114673;28;20411;-71
2022/09/13 00:45:44;;;;;;;2.10;1.20;;;23.30;71.40;;;;;;5096605;28;20057;-70
2022/09/13 00:48:14;;;;;;;3.15;1.15;;;23.30;71.40;;;;;;5114347;28;20054;-71
2022/09/13 00:50:42;;;;;;;2.85;1.42;;;23.30;71.40;;;;;;5097193;28;20020;-70
2022/09/13 00:53:18;;;;;;;2.95;1.25;;;23.30;71.40;;;;;;5075120;28;20031;-70
2022/09/13 00:55:53;;;;;;;1.73;1.13;;;23.30;71.50;;;;;;5072644;28;20013;-70
2022/09/13 00:58:40;;;;;;;2.95;1.63;;;23.30;71.40;;;;;;5073790;28;20032;-70
2022/09/13 01:01:07;;;;;;;3.03;1.10;;;23.30;71.30;;;;;;5099816;28;20032;-70
2022/09/13 01:03:33;;;;;;;1.80;1.35;;;23.30;71.50;;;;;;5113228;28;20027;-70
2022/09/13 01:06:14;;;;;;;2.42;1.55;;;23.30;71.40;;;;;;5113119;28;20024;-70
2022/09/13 01:08:40;;;;;;;1.95;1.17;;;23.30;71.40;;;;;;5113038;28;20404;-70
2022/09/13 01:11:10;;;;;;;2.25;1.40;;;23.30;71.40;;;;;;5113103;28;20437;-70
2022/09/13 01:13:36;;;;;;;2.88;1.35;;;23.30;71.40;;;;;;5113067;28;20024;-70
2022/09/13 01:16:02;;;;;;;4.28;1.17;;;23.30;71.40;;;;;;5112904;28;20023;-70
2022/09/13 01:18:27;;;;;;;5.53;1.30;;;23.30;71.40;;;;;;5113908;28;20023;-70
2022/09/13 01:21:21;;;;;;;2.08;1.17;;;23.40;71.50;;;;;;5114070;28;20462;-70
2022/09/13 01:24:27;;;;;;;5.80;1.38;;;23.30;71.40;;;;;;5113814;28;20081;-70
2022/09/13 01:26:56;;;;;;;2.80;1.15;;;23.30;71.20;;;;;;5031657;28;20030;-70
2022/09/13 01:29:24;;;;;;;1.90;1.17;;;23.40;71.20;;;;;;5031228;28;20123;-70
2022/09/13 01:32:13;;;;;;;1.70;1.15;;;23.30;71.30;;;;;;5031322;28;20050;-70
2022/09/13 01:35:02;;;;;;;1.75;1.20;;;23.30;71.30;;;;;;4959270;28;20530;-70
2022/09/13 01:37:45;;;;;;;4.35;1.13;;;23.30;71.30;;;;;;4957025;28;20061;-70
2022/09/13 01:40:44;;;;;;;2.70;1.60;;;23.30;71.30;;;;;;4972023;28;20075;-70
2022/09/13 01:43:25;;;;;;;4.30;1.50;;;23.40;71.40;;;;;;4957713;28;20027;-70
2022/09/13 01:46:20;;;;;;;3.13;1.42;;;23.30;71.40;;;;;;4956046;28;20093;-70
2022/09/13 01:49:08;;;;;;;2.85;1.35;;;23.30;71.50;;;;;;4971859;28;20051;-70
2022/09/13 01:51:38;;;;;;;2.22;1.10;;;23.30;71.50;;;;;;4950077;29;20043;-70
2022/09/13 01:54:08;;;;;;;3.03;1.35;;;23.30;71.60;;;;;;4953048;29;20030;-70
2022/09/13 01:56:43;;;;;;;2.60;1.17;;;23.30;71.60;;;;;;4958436;28;20035;-70
2022/09/13 01:59:32;;;;;;;3.03;1.40;;;23.30;71.60;;;;;;4999233;28;20057;-70
2022/09/13 02:02:26;;;;;;;2.72;1.10;;;23.30;71.60;;;;;;5044315;28;20528;-70
2022/09/13 02:04:53;;;;;;;6.03;1.35;;;23.30;71.60;;;;;;5049941;28;20048;-70
2022/09/13 02:07:23;;;;;;;3.90;1.23;;;23.30;71.70;;;;;;5033711;28;20103;-71
2022/09/13 02:09:51;;;;;;;2.50;1.20;;;23.40;71.70;;;;;;5034071;28;20033;-71
2022/09/13 02:12:22;;;;;;;3.08;1.13;;;23.30;71.70;;;;;;5077603;28;20445;-71
2022/09/13 02:14:57;;;;;;;2.97;1.33;;;23.30;71.70;;;;;;5095140;28;20090;-71
2022/09/13 02:17:24;;;;;;;4.13;1.55;;;23.30;71.70;;;;;;5095305;28;20034;-70
2022/09/13 02:19:58;;;;;;;4.35;1.30;;;23.30;71.80;;;;;;5095051;28;20026;-70
2022/09/13 02:22:32;;;;;;;4.22;1.02;;;23.30;71.70;;;;;;5111750;28;20016;-70
2022/09/13 02:25:01;;;;;;;3.75;1.30;;;23.30;71.70;;;;;;5095052;28;20091;-70
2022/09/13 02:27:28;;;;;;;2.25;1.10;;;23.30;71.70;;;;;;5094673;28;20016;-70
2022/09/13 02:29:59;;;;;;;1.67;1.23;;;23.30;71.70;;;;;;5094788;28;20020;-71
2022/09/13 02:32:31;;;;;;;1.43;0.97;;;23.30;71.70;;;;;;5094970;28;20015;-70
2022/09/13 02:35:08;;;;;;;4.97;1.33;;;23.30;71.70;;;;;;5095102;28;20031;-70
2022/09/13 02:37:35;;;;;;;2.38;1.20;;;23.30;71.70;;;;;;5111571;28;20028;-70
2022/09/13 02:40:09;;;;;;;2.25;1.13;;;23.30;71.70;;;;;;5094635;28;20036;-71
2022/09/13 02:42:42;;;;;;;1.55;0.98;;;23.30;71.80;;;;;;5111368;28;20023;-70
2022/09/13 02:45:09;;;;;;;3.50;1.00;;;23.30;71.80;;;;;;5111638;28;20031;-70
2022/09/13 02:47:56;;;;;;;3.78;1.23;;;23.30;71.80;;;;;;5094507;28;20028;-71
2022/09/13 02:50:55;;;;;;;2.40;1.20;;;23.30;71.80;;;;;;5094937;28;20032;-71
2022/09/13 02:53:36;;;;;;;3.45;1.05;;;23.30;71.90;;;;;;5072063;28;20024;-70
2022/09/13 02:56:32;;;;;;;2.92;1.52;;;23.30;71.90;;;;;;5071002;28;20079;-70
2022/09/13 02:59:00;;;;;;;5.20;1.13;;;23.40;72.00;;;;;;5029950;28;20042;-71
2022/09/13 03:01:26;;;;;;;1.58;1.08;;;23.30;71.90;;;;;;5050069;28;20037;-70
2022/09/13 03:03:53;;;;;;;3.47;1.33;;;23.30;71.90;;;;;;5037233;28;20128;-70
2022/09/13 03:06:25;;;;;;;4.43;1.00;;;23.40;71.90;;;;;;5037407;28;20601;-71
2022/09/13 03:08:52;;;;;;;2.45;1.00;;;23.40;72.00;;;;;;5037203;28;20440;-71
2022/09/13 03:11:31;;;;;;;2.15;1.02;;;23.30;71.90;;;;;;5036974;28;20105;-70
2022/09/13 03:13:56;;;;;;;2.17;1.05;;;23.40;72.00;;;;;;5037129;28;20055;-71
2022/09/13 03:16:24;;;;;;;2.83;1.20;;;23.40;72.00;;;;;;5053644;28;20477;-70
2022/09/13 03:19:11;;;;;;;1.00;0.90;;;23.30;71.90;;;;;;5053513;28;20036;-70
2022/09/13 03:22:05;;;;;;;1.70;1.15;;;23.40;71.90;;;;;;5039673;28;20489;-71
2022/09/13 03:24:49;;;;;;;2.25;0.95;;;23.40;71.90;;;;;;5053361;28;20037;-70
2022/09/13 03:27:33;;;;;;;4.15;1.20;;;23.30;71.80;;;;;;5036643;28;20029;-71
2022/09/13 03:30:02;;;;;;;2.92;1.20;;;23.30;71.90;;;;;;5053471;28;20033;-71
2022/09/13 03:32:51;;;;;;;1.35;1.00;;;23.30;72.00;;;;;;5053333;28;20021;-71
2022/09/13 03:35:43;;;;;;;2.55;1.30;;;23.30;71.90;;;;;;5067152;28;20040;-71
2022/09/13 03:38:14;;;;;;;4.35;1.35;;;23.40;72.00;;;;;;5114900;28;20023;-70
2022/09/13 03:41:03;;;;;;;1.52;0.95;;;23.40;72.00;;;;;;5097889;28;20042;-70
2022/09/13 03:43:45;;;;;;;4.40;1.27;;;23.40;72.00;;;;;;5115820;28;20022;-70
2022/09/13 03:46:36;;;;;;;4.55;1.23;;;23.40;71.90;;;;;;5098573;28;20047;-70
2022/09/13 03:49:04;;;;;;;2.05;1.00;;;23.30;71.90;;;;;;5099862;28;20032;-70
2022/09/13 03:51:29;;;;;;;3.33;0.93;;;23.40;72.00;;;;;;5087190;28;20028;-70
2022/09/13 03:53:58;;;;;;;5.35;1.27;;;23.30;71.90;;;;;;5073757;28;20023;-70
2022/09/13 03:56:24;;;;;;;1.63;0.90;;;23.40;72.00;;;;;;5073924;28;20569;-71
2022/09/13 03:58:50;;;;;;;3.20;1.27;;;23.30;71.90;;;;;;5073729;28;20112;-71
2022/09/13 04:01:20;;;;;;;2.50;1.17;;;23.30;71.90;;;;;;5111765;28;20053;-71
2022/09/13 04:03:46;;;;;;;5.18;1.20;;;23.30;71.90;;;;;;5114326;28;20023;-71
2022/09/13 04:06:11;;;;;;;3.08;0.90;;;23.30;71.90;;;;;;5114327;28;20115;-71
2022/09/13 04:08:38;;;;;;;2.08;1.08;;;23.30;71.90;;;;;;5115087;28;20024;-71
2022/09/13 04:11:03;;;;;;;1.85;1.10;;;23.30;71.90;;;;;;5097381;28;20030;-71
2022/09/13 04:13:29;;;;;;;1.55;1.10;;;23.30;71.90;;;;;;5114893;28;20012;-71
2022/09/13 04:15:59;;;;;;;1.65;1.10;;;23.30;72.00;;;;;;5115752;28;20479;-71
2022/09/13 04:18:25;;;;;;;2.00;1.20;;;23.40;72.00;;;;;;5097706;28;20012;-71
2022/09/13 04:20:54;;;;;;;1.90;1.10;;;23.30;71.90;;;;;;5115229;28;20042;-70
2022/09/13 04:23:21;;;;;;;1.63;0.80;;;23.30;71.90;;;;;;5114936;28;20023;-71
2022/09/13 04:25:47;;;;;;;2.47;0.82;;;23.30;71.90;;;;;;5113856;28;20026;-71
2022/09/13 04:28:12;;;;;;;1.92;1.00;;;23.30;71.90;;;;;;5115099;28;20024;-70
2022/09/13 04:30:38;;;;;;;1.70;0.80;;;23.30;71.90;;;;;;5114837;28;20502;-70
2022/09/13 04:33:04;;;;;;;2.15;0.70;;;23.30;71.90;;;;;;5113848;28;20089;-71
2022/09/13 04:35:29;;;;;;;1.40;0.90;;;23.30;71.90;;;;;;5115139;28;20031;-71
2022/09/13 04:37:57;;;;;;;3.92;1.25;;;23.30;71.90;;;;;;5114536;28;20028;-70
2022/09/13 04:40:23;;;;;;;1.63;1.10;;;23.30;71.90;;;;;;5113650;28;20020;-70
2022/09/13 04:42:49;;;;;;;2.30;1.15;;;23.30;71.90;;;;;;5114792;28;20024;-70
2022/09/13 04:45:14;;;;;;;1.35;0.70;;;23.30;71.90;;;;;;5114836;28;20028;-70
2022/09/13 04:47:40;;;;;;;1.73;0.80;;;23.30;71.90;;;;;;5113225;28;20031;-70
2022/09/13 04:50:06;;;;;;;2.25;1.00;;;23.30;71.90;;;;;;5114315;28;20051;-70
2022/09/13 04:52:32;;;;;;;1.17;0.90;;;23.30;71.90;;;;;;5085251;28;20021;-70
2022/09/13 04:55:00;;;;;;;2.15;0.82;;;23.30;71.90;;;;;;5073853;28;20017;-70
2022/09/13 04:57:26;;;;;;;1.65;0.90;;;23.30;71.90;;;;;;5072842;28;20027;-70
2022/09/13 04:59:52;;;;;;;1.98;1.05;;;23.30;72.00;;;;;;5086166;28;20058;-70
2022/09/13 05:02:18;;;;;;;2.10;1.10;;;23.30;71.90;;;;;;5113330;28;20019;-70
2022/09/13 05:04:43;;;;;;;1.13;1.00;;;23.30;71.90;;;;;;5114503;28;20016;-70
2022/09/13 05:07:09;;;;;;;1.35;1.02;;;23.30;71.90;;;;;;5114100;28;20030;-70
2022/09/13 05:09:34;;;;;;;2.28;0.80;;;23.30;72.00;;;;;;5113021;28;20028;-70
2022/09/13 05:12:00;;;;;;;2.83;1.10;;;23.30;72.00;;;;;;5114190;28;20102;-70
2022/09/13 05:14:26;;;;;;;2.03;0.88;;;23.30;71.90;;;;;;5114249;28;20162;-70
2022/09/13 05:16:52;;;;;;;1.15;0.85;;;23.30;72.00;;;;;;5114220;28;20085;-70
2022/09/13 05:19:17;;;;;;;2.38;1.17;;;23.30;72.00;;;;;;5113932;28;20445;-70
2022/09/13 05:21:43;;;;;;;9.38;1.05;;;23.30;72.00;;;;;;5112757;28;20019;-70
2022/09/13 05:24:09;;;;;;;3.03;1.20;;;23.30;71.90;;;;;;5112166;28;20024;-70
2022/09/13 05:26:34;;;;;;;2.17;0.80;;;23.30;72.00;;;;;;5113726;28;20031;-70
2022/09/13 05:29:00;;;;;;;3.03;0.93;;;23.30;72.00;;;;;;5113874;28;20092;-70
2022/09/13 05:31:34;;;;;;;1.30;0.90;;;23.30;72.00;;;;;;5112585;28;20106;-70
2022/09/13 05:34:02;;;;;;;1.60;1.02;;;23.30;72.00;;;;;;5113829;28;20026;-70
2022/09/13 05:36:28;;;;;;;2.35;1.10;;;23.30;72.10;;;;;;5112499;28;20015;-70
2022/09/13 05:38:53;;;;;;;1.92;0.95;;;23.30;72.20;;;;;;5112475;28;20024;-70
2022/09/13 05:41:19;;;;;;;2.20;1.13;;;23.30;72.20;;;;;;5112612;28;20601;-70
2022/09/13 05:43:45;;;;;;;2.95;1.05;;;23.30;72.20;;;;;;5112297;28;20055;-70
2022/09/13 05:46:14;;;;;;;1.30;0.80;;;23.30;72.20;;;;;;5112682;28;20028;-70
2022/09/13 05:48:40;;;;;;;1.10;0.82;;;23.30;72.30;;;;;;5095701;28;20040;-70
2022/09/13 05:51:13;;;;;;;1.92;1.00;;;23.30;72.20;;;;;;5091242;28;20088;-70
2022/09/13 05:53:39;;;;;;;0.95;0.85;;;23.30;72.30;;;;;;5072598;28;20071;-70
2022/09/13 05:56:10;;;;;;;1.58;1.00;;;23.30;72.30;;;;;;5071687;28;20388;-70
2022/09/13 05:58:40;;;;;;;3.13;1.20;;;23.30;72.30;;;;;;5071705;28;20024;-70
2022/09/13 06:01:06;;;;;;;1.60;0.73;;;23.30;72.30;;;;;;5105728;28;20023;-70
2022/09/13 06:03:31;;;;;;;1.73;1.05;;;23.30;72.40;;;;;;5113347;28;20027;-70
2022/09/13 06:05:57;;;;;;;1.65;1.08;;;23.30;72.40;;;;;;5112840;28;20024;-70
2022/09/13 06:08:24;;;;;;;4.45;0.88;;;23.30;72.40;;;;;;5112058;28;20479;-70
2022/09/13 06:11:02;;;;;;;2.50;1.10;;;23.30;72.40;;;;;;5112006;28;20132;-70
2022/09/13 06:13:28;;;;;;;1.75;1.10;;;23.30;72.40;;;;;;5112038;28;20024;-70
2022/09/13 06:15:55;;;;;;;1.58;1.13;;;23.30;72.30;;;;;;5111724;28;20024;-70
2022/09/13 06:18:20;;;;;;;2.88;1.15;;;23.30;70.50;;;;;;5095065;28;20077;-70
2022/09/13 06:20:46;;;;;;;3.15;0.90;;;23.20;69.90;;;;;;5113114;28;20027;-71
2022/09/13 06:23:12;;;;;;;2.60;0.90;;;23.20;70.30;;;;;;5113016;28;20406;-71
2022/09/13 06:25:38;;;;;;;2.78;0.90;;;23.20;70.50;;;;;;5111997;28;20505;-71
2022/09/13 06:28:04;;;;;;;1.83;0.80;;;23.20;70.40;;;;;;5111502;28;20031;-71
2022/09/13 06:30:29;;;;;;;1.80;0.90;;;23.20;70.20;;;;;;5110024;28;20020;-71
2022/09/13 06:32:56;;;;;;;1.58;1.10;;;23.20;70.20;;;;;;5094003;28;20129;-71
2022/09/13 06:35:21;;;;;;;1.45;0.90;;;23.20;70.10;;;;;;5112458;28;20451;-71
2022/09/13 06:37:47;;;;;;;2.60;1.02;;;23.20;70.20;;;;;;5111650;28;20067;-70
2022/09/13 06:40:13;;;;;;;2.05;0.93;;;23.20;70.10;;;;;;5111484;28;20114;-71
2022/09/13 06:42:38;;;;;;;1.30;0.85;;;23.20;70.10;;;;;;5112735;28;20028;-71
2022/09/13 06:45:05;;;;;;;1.67;0.70;;;23.20;70.00;;;;;;5112031;28;20475;-71
2022/09/13 06:47:31;;;;;;;1.45;0.70;;;23.20;69.90;;;;;;5112013;28;20015;-71
2022/09/13 06:49:57;;;;;;;2.10;0.90;;;23.10;69.90;;;;;;5112633;28;20518;-70
2022/09/13 06:52:23;;;;;;;2.72;0.98;;;23.10;69.80;;;;;;5086413;28;20024;-71
2022/09/13 06:54:49;;;;;;;3.30;1.05;;;23.10;69.80;;;;;;5071278;28;20131;-71
2022/09/13 06:57:14;;;;;;;2.47;0.85;;;23.10;69.80;;;;;;5072247;28;20104;-70
2022/09/13 06:59:40;;;;;;;4.18;1.10;;;23.10;69.70;;;;;;5081198;28;20032;-70
2022/09/13 07:02:06;;;;;;;7.57;1.65;;;23.10;69.70;;;;;;5111557;28;20035;-70
2022/09/13 07:04:31;;;;;;;8.02;2.15;;;23.10;69.70;;;;;;5111145;28;20028;-70
2022/09/13 07:06:58;;;;;;;2.47;1.08;;;23.10;69.90;;;;;;5111248;28;20031;-70
2022/09/13 07:09:24;;;;;;;13.50;2.97;;;23.10;69.90;;;;;;5110247;28;20049;-70
2022/09/13 07:11:51;;;;;;;6.80;1.98;;;23.10;70.00;;;;;;5109700;28;20105;-70
2022/09/13 07:14:18;;;;;;;9.32;2.25;;;23.10;70.00;;;;;;5110483;28;20039;-70
2022/09/13 07:16:45;;;;;;;11.45;2.78;;;23.10;70.10;;;;;;5104482;28;20027;-70
2022/09/13 07:19:25;;;;;;;9.75;2.78;;;23.10;70.10;;;;;;5102469;28;20016;-70
2022/09/13 07:21:51;;;;;;;7.43;2.55;;;23.10;70.10;;;;;;5094189;28;20028;-70
2022/09/13 07:24:16;;;;;;;7.32;2.28;;;23.10;70.20;;;;;;5091868;28;20482;-70
2022/09/13 07:26:42;;;;;;;10.32;2.50;;;23.10;70.20;;;;;;5111141;28;20031;-70
2022/09/13 07:29:10;;;;;;;7.95;2.67;;;23.10;70.30;;;;;;5111093;28;20058;-70
2022/09/13 07:31:37;;;;;;;12.02;3.03;;;23.10;70.30;;;;;;5110793;28;20089;-70
2022/09/13 07:34:05;;;;;;;10.02;3.38;;;23.00;70.20;;;;;;5082620;28;20024;-70
2022/09/13 07:36:31;;;;;;;9.13;2.78;;;23.10;70.30;;;;;;5090779;28;20028;-70
2022/09/13 07:38:57;;;;;;;10.75;3.20;;;23.10;70.30;;;;;;5091628;28;20058;-70
2022/09/13 07:41:23;;;;;;;13.25;3.38;;;23.10;70.30;;;;;;5074021;28;20028;-70
2022/09/13 07:43:50;;;;;;;9.65;3.15;;;23.10;70.30;;;;;;5074067;28;20051;-70
2022/09/13 07:46:18;;;;;;;8.63;3.17;;;23.00;70.20;;;;;;5073688;28;20052;-70
2022/09/13 07:48:44;;;;;;;7.15;3.08;;;23.00;70.30;;;;;;5092684;28;20068;-70
2022/09/13 07:51:12;;;;;;;14.38;3.80;;;23.10;70.40;;;;;;5086628;28;20024;-70
2022/09/13 07:53:38;;;;;;;14.57;3.70;;;23.10;70.30;;;;;;5094089;28;20035;-70
2022/09/13 07:56:05;;;;;;;9.93;3.15;;;23.00;70.30;;;;;;5094315;28;20024;-70
2022/09/13 07:58:32;;;;;;;12.27;3.33;;;23.00;70.20;;;;;;5077378;28;20050;-70
2022/09/13 08:01:16;;;;;;;9.30;3.42;;;23.00;70.20;;;;;;5093824;28;20058;-70
2022/09/13 08:03:42;;;;;;;9.95;3.40;;;23.00;70.20;;;;;;5094094;28;20016;-70
2022/09/13 08:06:08;;;;;;;10.25;3.40;;;23.00;70.30;;;;;;5093859;28;20024;-70
2022/09/13 08:08:34;;;;;;;11.65;3.45;;;23.00;70.30;;;;;;5093659;28;20032;-70
2022/09/13 08:11:00;;;;;;;12.88;3.53;;;23.00;70.30;;;;;;5094035;28;20099;-70
2022/09/13 08:13:27;;;;;;;12.60;3.78;;;23.00;70.40;;;;;;5076973;28;20055;-70
2022/09/13 08:15:53;;;;;;;11.23;3.28;;;23.00;70.30;;;;;;5093411;28;20445;-70
2022/09/13 08:18:19;;;;;;;12.43;3.88;;;23.00;70.30;;;;;;5075692;28;20032;-70
2022/09/13 08:20:44;;;;;;;15.60;3.70;;;23.00;70.40;;;;;;5073487;28;20404;-70
2022/09/13 08:23:11;;;;;;;11.13;3.75;;;23.00;70.30;;;;;;5073176;28;20028;-70
2022/09/13 08:25:37;;;;;;;20.27;3.92;;;23.00;70.30;;;;;;5102610;28;20039;-70
2022/09/13 08:28:14;;;;;;;12.88;4.10;;;23.00;70.30;;;;;;5113722;28;20032;-70
2022/09/13 08:30:41;;;;;;;17.33;3.70;;;23.00;70.20;;;;;;5113740;28;20019;-70
2022/09/13 08:33:07;;;;;;;13.57;4.03;;;23.00;70.20;;;;;;5113633;28;20426;-70
2022/09/13 08:35:32;;;;;;;13.18;4.00;;;23.00;70.30;;;;;;5113814;28;20032;-70
2022/09/13 08:37:58;;;;;;;11.95;3.22;;;23.00;70.20;;;;;;5114972;28;20402;-70
2022/09/13 08:40:26;;;;;;;16.67;4.70;;;23.00;70.20;;;;;;5114797;28;20119;-70
2022/09/13 08:43:30;;;;;;;13.85;4.20;;;23.00;70.20;;;;;;5113531;28;20049;-70
2022/09/13 08:46:05;;;;;;;11.05;4.30;;;23.00;70.20;;;;;;5069253;28;20051;-70
2022/09/13 08:48:33;;;;;;;8.00;3.70;;;23.00;70.20;;;;;;5096382;28;20039;-70
2022/09/13 08:51:04;;;;;;;13.00;3.63;;;22.90;70.20;;;;;;5096551;28;20047;-70
2022/09/13 08:53:30;;;;;;;10.68;3.80;;;23.00;70.10;;;;;;5114764;28;20062;-70
2022/09/13 08:55:56;;;;;;;12.73;4.03;;;23.00;70.10;;;;;;5114412;28;20489;-70
2022/09/13 08:58:28;;;;;;;10.10;3.83;;;23.00;70.10;;;;;;5114193;28;20073;-70
2022/09/13 09:01:10;;;;;;;12.52;4.32;;;23.00;70.10;;;;;;5113125;28;20495;-70
2022/09/13 09:04:10;;;;;;;11.73;3.95;;;23.00;70.10;;;;;;5096778;28;20051;-70
2022/09/13 09:06:35;;;;;;;13.23;3.80;;;23.00;70.10;;;;;;5079997;28;20506;-70
2022/09/13 09:09:07;;;;;;;12.30;3.70;;;23.00;70.10;;;;;;5112862;28;20038;-70
2022/09/13 09:11:55;;;;;;;15.43;4.10;;;22.90;70.00;;;;;;5113158;28;20098;-70
2022/09/13 09:14:32;;;;;;;10.40;3.55;;;23.00;70.00;;;;;;5113913;27;20024;-70
2022/09/13 09:17:03;;;;;;;14.10;4.15;;;23.00;70.10;;;;;;5083366;28;20400;-70
2022/09/13 09:19:39;;;;;;;12.82;3.88;;;22.90;70.00;;;;;;5073423;28;20028;-70
2022/09/13 09:22:12;;;;;;;12.02;4.03;;;23.00;70.00;;;;;;5072290;28;20029;-70
2022/09/13 09:24:38;;;;;;;12.35;4.18;;;22.90;70.20;;;;;;5084885;28;20395;-70
2022/09/13 09:27:13;;;;;;;13.23;3.85;;;22.90;70.00;;;;;;5113860;28;20024;-70
2022/09/13 09:29:42;;;;;;;13.98;3.67;;;22.90;70.00;;;;;;5096023;28;20386;-70
2022/09/13 09:32:24;;;;;;;8.82;3.38;;;22.90;70.00;;;;;;5096273;28;20036;-70
2022/09/13 09:35:16;;;;;;;10.23;3.50;;;22.90;70.00;;;;;;5112796;28;20024;-70
2022/09/13 09:37:42;;;;;;;10.75;4.20;;;22.90;70.10;;;;;;5112437;28;20106;-70
2022/09/13 09:40:11;;;;;;;13.38;4.03;;;22.90;70.10;;;;;;5112710;28;20123;-70
2022/09/13 09:42:42;;;;;;;10.93;3.40;;;22.90;70.10;;;;;;5112413;28;20020;-70
2022/09/13 09:45:26;;;;;;;8.52;3.03;;;22.90;70.00;;;;;;5112318;28;20102;-70
2022/09/13 09:47:52;;;;;;;11.45;4.32;;;22.90;70.10;;;;;;5096219;28;20083;-70
2022/09/13 09:50:26;;;;;;;13.95;4.38;;;22.90;70.00;;;;;;5095342;28;20114;-70
2022/09/13 09:52:56;;;;;;;9.57;3.80;;;22.90;70.00;;;;;;5096137;28;20024;-70
2022/09/13 09:55:26;;;;;;;11.07;3.85;;;22.90;70.00;;;;;;5113432;28;20387;-70
2022/09/13 09:58:15;;;;;;;9.77;3.47;;;22.90;70.10;;;;;;5111965;28;20160;-70
2022/09/13 10:00:52;;;;;;;7.75;3.40;;;22.90;70.10;;;;;;5112191;28;20514;-70
2022/09/13 10:03:36;;;;;;;11.05;3.60;;;22.90;70.00;;;;;;5095093;28;20031;-70
2022/09/13 10:06:06;;;;;;;8.32;3.38;;;22.90;70.00;;;;;;5112125;28;20281;-70
2022/09/13 10:08:36;;;;;;;10.65;3.90;;;22.90;70.00;;;;;;5111971;28;20099;-70
2022/09/13 10:11:02;;;;;;;11.52;3.40;;;22.90;70.00;;;;;;5094503;28;20015;-70
2022/09/13 10:13:28;;;;;;;14.27;3.63;;;22.90;70.00;;;;;;5095099;28;20020;-70
2022/09/13 10:16:00;;;;;;;9.80;3.47;;;22.90;70.00;;;;;;5111896;28;20020;-70
2022/09/13 10:18:35;;;;;;;;;;;22.90;70.10;;;;;;5074114;28;20093;-70
2022/09/13 10:21:16;;;;;;;9.63;2.83;;;22.90;70.10;;;;;;5087851;28;19978;-70
2022/09/13 10:23:42;;;;;;;12.48;3.15;;;22.90;70.10;;;;;;5072396;28;20035;-70
2022/09/13 10:26:21;;;;;;;9.23;3.38;;;22.90;70.10;;;;;;5108548;28;20020;-70
2022/09/13 10:29:01;;;;;;;13.18;4.00;;;22.90;70.10;;;;;;5095745;28;20028;-70
2022/09/13 10:31:29;;;;;;;9.05;3.60;;;22.90;70.00;;;;;;5111998;28;20016;-70
2022/09/13 10:34:00;;;;;;;6.07;2.90;;;22.90;70.10;;;;;;5111502;28;20047;-70
2022/09/13 10:36:34;;;;;;;8.88;3.20;;;22.90;70.00;;;;;;5111670;28;20095;-70
2022/09/13 10:39:07;;;;;;;8.43;3.45;;;22.90;70.10;;;;;;5111716;28;20394;-70
2022/09/13 10:41:41;;;;;;;6.85;2.70;;;22.90;70.10;;;;;;5094531;28;20384;-70
2022/09/13 10:44:26;;;;;;;7.15;2.80;;;22.90;70.10;;;;;;5112680;28;20023;-70
2022/09/13 10:46:52;;;;;;;7.97;3.15;;;22.90;70.00;;;;;;5112853;28;20125;-70
2022/09/13 10:49:58;;;;;;;10.43;4.00;;;22.90;70.00;;;;;;5111281;28;20523;-70
2022/09/13 10:52:42;;;;;;;7.90;3.08;;;22.90;70.00;;;;;;5112659;28;20052;-70
2022/09/13 10:55:19;;;;;;;6.63;3.15;;;22.90;70.00;;;;;;5111285;28;20023;-70
2022/09/13 10:57:48;;;;;;;6.53;2.88;;;22.90;70.10;;;;;;5111330;28;20063;-70
2022/09/13 11:00:16;;;;;;;7.93;2.90;;;22.90;70.10;;;;;;5111187;28;20110;-70
2022/09/13 11:03:17;;;;;;;6.13;2.85;;;22.90;70.10;;;;;;5094802;28;20016;-70
2022/09/13 11:05:52;;;;;;;5.80;2.95;;;22.90;70.10;;;;;;5101716;28;20060;-70
2022/09/13 11:08:40;;;;;;;5.43;2.75;;;22.90;70.10;;;;;;5111081;28;20103;-70
2022/09/13 11:11:05;;;;;;;8.60;3.20;;;22.90;70.10;;;;;;5079268;28;20399;-70
2022/09/13 11:13:56;;;;;;;7.38;2.95;;;22.80;70.10;;;;;;5112441;28;20016;-70
2022/09/13 11:16:30;;;;;;;5.68;2.65;;;22.90;70.00;;;;;;5108955;28;20411;-70
2022/09/13 11:19:20;;;;;;;7.55;2.92;;;22.90;70.10;;;;;;5071875;28;20035;-70
2022/09/13 11:22:06;;;;;;;9.68;3.10;;;22.80;70.00;;;;;;5070737;28;20035;-70
2022/09/13 11:24:43;;;;;;;7.45;2.40;;;22.80;70.10;;;;;;5084869;28;20555;-70
2022/09/13 11:27:33;;;;;;;5.78;2.95;;;22.80;70.00;;;;;;5116235;28;20024;-70
2022/09/13 11:29:59;;;;;;;5.40;2.75;;;22.80;70.10;;;;;;5116307;27;20518;-70
2022/09/13 11:32:28;;;;;;;5.97;2.65;;;22.90;70.20;;;;;;5115929;28;20023;-70
2022/09/13 11:35:26;;;;;;;6.35;2.92;;;22.90;70.20;;;;;;5114990;28;20020;-70
2022/09/13 11:38:05;;;;;;;5.20;2.72;;;22.80;70.10;;;;;;5115000;28;20023;-70
2022/09/13 11:40:49;;;;;;;8.07;3.17;;;22.80;70.10;;;;;;5114651;28;20527;-70
2022/09/13 11:43:59;;;;;;;5.90;2.60;;;22.80;70.10;;;;;;5114767;28;20023;-70
2022/09/13 11:46:43;;;;;;;5.03;2.15;;;22.90;70.20;;;;;;5033068;28;20397;-70
2022/09/13 11:49:17;;;;;;;5.60;2.70;;;22.90;70.20;;;;;;5016713;28;20133;-70
2022/09/13 11:52:07;;;;;;;4.03;2.40;;;22.90;70.20;;;;;;5033169;28;20525;-70
2022/09/13 11:54:43;;;;;;;4.95;2.38;;;22.80;70.10;;;;;;5032858;28;20132;-70
2022/09/13 11:57:18;;;;;;;4.97;2.33;;;22.90;70.20;;;;;;5033089;28;20033;-70
2022/09/13 11:59:50;;;;;;;4.72;2.72;;;22.80;70.10;;;;;;5017358;28;20072;-70
2022/09/13 12:02:28;;;;;;;4.63;2.25;;;22.90;70.30;;;;;;5016714;28;20120;-70
2022/09/13 12:05:06;;;;;;;5.82;2.80;;;22.80;70.10;;;;;;5016602;28;20425;-70
2022/09/13 12:08:01;;;;;;;6.07;2.33;;;22.90;70.20;;;;;;5016783;28;20032;-70
2022/09/13 12:10:29;;;;;;;4.95;2.10;;;22.80;70.10;;;;;;5016318;28;20509;-70
2022/09/13 12:12:55;;;;;;;5.57;2.55;;;22.80;70.20;;;;;;5016572;28;20044;-70
2022/09/13 12:15:29;;;;;;;4.35;2.35;;;22.90;70.20;;;;;;5016236;28;20097;-70
2022/09/13 12:18:05;;;;;;;4.32;2.28;;;22.90;70.20;;;;;;5070623;28;20040;-70
2022/09/13 12:20:33;;;;;;;4.93;2.50;;;22.90;70.20;;;;;;5073530;28;20024;-70
2022/09/13 12:23:01;;;;;;;3.15;2.10;;;22.90;70.20;;;;;;5073150;28;20400;-70
2022/09/13 12:25:50;;;;;;;5.28;2.33;;;22.90;70.30;;;;;;5099411;28;20028;-70
2022/09/13 12:28:48;;;;;;;6.03;2.55;;;22.90;70.20;;;;;;5113642;28;20036;-70
2022/09/13 12:31:19;;;;;;;3.15;2.03;;;22.90;70.20;;;;;;5105894;28;20031;-70
2022/09/13 12:33:45;;;;;;;4.72;2.20;;;22.90;70.30;;;;;;5113479;28;20073;-70
2022/09/13 12:36:19;;;;;;;4.63;2.47;;;22.90;70.20;;;;;;5096767;28;20020;-70
2022/09/13 12:39:22;;;;;;;6.25;1.98;;;22.90;70.30;;;;;;5114948;28;20038;-70
2022/09/13 12:41:51;;;;;;;;;;;22.90;70.30;;;;;;5115433;28;20050;-70
2022/09/13 12:44:58;;;;;;;6.38;2.50;;;22.90;70.30;;;;;;5114899;28;19904;-70
2022/09/13 12:47:33;;;;;;;4.13;2.17;;;22.90;70.20;;;;;;5032212;28;20176;-70
2022/09/13 12:50:21;;;;;;;4.05;2.35;;;22.90;70.30;;;;;;5031776;28;20128;-70
2022/09/13 12:52:59;;;;;;;3.13;2.25;;;22.90;70.30;;;;;;5016369;28;20037;-70
2022/09/13 12:55:28;;;;;;;3.83;1.92;;;22.90;70.30;;;;;;5015413;28;20104;-70
2022/09/13 12:57:56;;;;;;;3.17;1.88;;;22.90;70.30;;;;;;5031904;28;20037;-70
2022/09/13 13:00:28;;;;;;;4.00;2.40;;;22.90;70.30;;;;;;5015146;28;20033;-70
2022/09/13 13:03:10;;;;;;;3.55;1.80;;;22.90;70.30;;;;;;5015314;28;20103;-70
2022/09/13 13:05:39;;;;;;;4.47;2.33;;;22.90;70.30;;;;;;5016250;28;20121;-70
2022/09/13 13:08:25;;;;;;;5.80;2.13;;;22.90;70.30;;;;;;5031680;28;20104;-70
2022/09/13 13:11:02;;;;;;;3.90;1.92;;;22.90;70.20;;;;;;5015353;28;20029;-70
2022/09/13 13:13:39;;;;;;;4.55;1.77;;;22.90;70.20;;;;;;5015086;28;20030;-70